Time;durP1;ratioP1;P1;durP2;ratioP2;P2;SDS_P1;SDS_P2;PMS_P1;PMS_P2;Temp;Humidity;BMP_temperature;BMP_pressure;BME280_temperature;BME280_humidity;BME280_pressure;Samples;Min_cycle;Max_cycle;Signal;HPM_P1;HPM_P2
2023/11/05 00:01:47;;;;;;;0.57;0.40;;;9.40;99.90;;;;;;7468453;19;20014;-77
2023/11/05 00:04:20;;;;;;;1.23;0.45;;;9.30;99.90;;;;;;7485783;19;21570;-77
2023/11/05 00:06:53;;;;;;;1.08;0.30;;;9.30;99.90;;;;;;7476488;19;20017;-77
2023/11/05 00:09:25;;;;;;;0.32;0.30;;;9.30;99.90;;;;;;7473039;19;20022;-75
2023/11/05 00:11:58;;;;;;;0.77;0.50;;;9.30;99.90;;;;;;7468644;19;20465;-78
2023/11/05 00:14:32;;;;;;;0.40;0.40;;;9.30;99.90;;;;;;7472405;19;20014;-76
2023/11/05 00:17:05;;;;;;;0.75;0.40;;;9.30;99.90;;;;;;7472834;19;20308;-75
2023/11/05 00:19:38;;;;;;;0.30;0.30;;;9.30;99.90;;;;;;7478144;19;20047;-75
2023/11/05 00:22:11;;;;;;;0.30;0.30;;;9.20;99.90;;;;;;7489642;19;21469;-77
2023/11/05 00:24:43;;;;;;;1.55;0.40;;;9.30;99.90;;;;;;7494657;19;20622;-78
2023/11/05 00:27:15;;;;;;;1.15;0.40;;;9.20;99.90;;;;;;7467015;19;20120;-78
2023/11/05 00:29:48;;;;;;;0.30;0.30;;;9.20;99.90;;;;;;7465400;19;20963;-77
2023/11/05 00:32:20;;;;;;;0.40;0.40;;;9.20;99.90;;;;;;7485299;19;20011;-77
2023/11/05 00:34:52;;;;;;;0.52;0.40;;;9.20;99.90;;;;;;7481545;19;20031;-77
2023/11/05 00:37:25;;;;;;;0.77;0.70;;;9.20;99.90;;;;;;7494758;19;21309;-78
2023/11/05 00:39:58;;;;;;;0.28;0.28;;;9.20;99.90;;;;;;7477171;19;20753;-77
2023/11/05 00:42:34;;;;;;;0.20;0.20;;;9.20;99.90;;;;;;7460270;19;20512;-78
2023/11/05 00:45:07;;;;;;;0.93;0.40;;;9.20;99.90;;;;;;7478516;19;20471;-78
2023/11/05 00:47:40;;;;;;;0.30;0.30;;;9.10;99.90;;;;;;7484451;19;20018;-78
2023/11/05 00:50:12;;;;;;;0.93;0.50;;;9.00;99.90;;;;;;7470218;19;20133;-76
2023/11/05 00:52:45;;;;;;;0.30;0.30;;;9.00;99.90;;;;;;7476138;19;20387;-77
2023/11/05 00:55:18;;;;;;;0.30;0.30;;;9.00;99.90;;;;;;7468336;19;20807;-76
2023/11/05 00:57:51;;;;;;;0.98;0.40;;;9.10;99.90;;;;;;7479584;19;20017;-76
2023/11/05 01:00:23;;;;;;;0.52;0.40;;;9.10;99.90;;;;;;7479489;19;20022;-77
2023/11/05 01:02:58;;;;;;;0.88;0.30;;;9.10;99.90;;;;;;7459983;19;20567;-77
2023/11/05 01:05:31;;;;;;;3.13;0.60;;;9.00;99.90;;;;;;7480400;19;21248;-77
2023/11/05 01:08:03;;;;;;;2.33;0.28;;;9.00;99.90;;;;;;7492198;19;20519;-78
2023/11/05 01:10:35;;;;;;;0.40;0.30;;;8.90;99.90;;;;;;7490346;19;20014;-76
2023/11/05 01:13:09;;;;;;;1.35;0.60;;;8.90;99.90;;;;;;7459128;19;20017;-78
2023/11/05 01:15:41;;;;;;;1.40;0.40;;;8.80;99.90;;;;;;7497471;19;20015;-77
2023/11/05 01:18:14;;;;;;;0.40;0.30;;;8.80;99.90;;;;;;7478661;19;21587;-77
2023/11/05 01:20:46;;;;;;;0.40;0.40;;;8.80;99.90;;;;;;7468183;19;20020;-77
2023/11/05 01:23:20;;;;;;;1.02;0.38;;;8.90;99.90;;;;;;7478333;19;20057;-78
2023/11/05 01:25:52;;;;;;;0.82;0.30;;;9.00;99.90;;;;;;7467772;19;21185;-76
2023/11/05 01:28:25;;;;;;;0.50;0.38;;;9.00;99.90;;;;;;7482547;19;20108;-76
2023/11/05 01:30:57;;;;;;;0.50;0.40;;;8.90;99.90;;;;;;7467549;19;20476;-77
2023/11/05 01:33:30;;;;;;;0.68;0.43;;;8.90;99.90;;;;;;7474286;19;20749;-76
2023/11/05 01:36:03;;;;;;;0.98;0.25;;;9.00;99.90;;;;;;7484765;19;20016;-78
2023/11/05 01:38:37;;;;;;;0.40;0.40;;;9.00;99.90;;;;;;7475944;19;20014;-78
2023/11/05 01:41:09;;;;;;;0.50;0.30;;;9.00;99.90;;;;;;7495359;19;20014;-79
2023/11/05 01:43:42;;;;;;;0.20;0.20;;;9.00;99.90;;;;;;7481262;19;21054;-77
2023/11/05 01:46:14;;;;;;;0.32;0.32;;;9.00;99.90;;;;;;7489546;19;20448;-77
2023/11/05 01:48:47;;;;;;;2.60;0.40;;;8.90;99.90;;;;;;7509087;19;20059;-77
2023/11/05 01:51:20;;;;;;;0.40;0.22;;;8.90;99.90;;;;;;7494237;19;20015;-78
2023/11/05 01:53:54;;;;;;;0.40;0.40;;;8.90;99.90;;;;;;7489832;19;20771;-78
2023/11/05 01:56:29;;;;;;;2.33;0.50;;;8.90;99.90;;;;;;7501902;19;20022;-76
2023/11/05 01:59:03;;;;;;;3.15;0.40;;;8.70;99.90;;;;;;7464022;19;20010;-77
2023/11/05 02:01:37;;;;;;;0.47;0.40;;;8.70;99.90;;;;;;7480222;19;20561;-78
2023/11/05 02:04:09;;;;;;;;;;;8.80;99.90;;;;;;7488332;19;20109;-78
2023/11/05 02:06:41;;;;;;;1.15;0.30;;;8.90;99.90;;;;;;7515530;19;20232;-77
2023/11/05 02:09:14;;;;;;;2.35;0.57;;;8.90;99.90;;;;;;7491897;19;20010;-78
2023/11/05 02:11:46;;;;;;;0.35;0.32;;;8.80;99.90;;;;;;7498199;19;20142;-77
2023/11/05 02:14:19;;;;;;;0.85;0.40;;;8.80;99.90;;;;;;7468031;19;20011;-77
2023/11/05 02:16:51;;;;;;;0.43;0.32;;;8.70;99.90;;;;;;7480875;19;20460;-78
2023/11/05 02:19:24;;;;;;;0.50;0.40;;;8.80;99.90;;;;;;7490444;19;20538;-77
2023/11/05 02:22:02;;;;;;;0.93;0.53;;;8.80;99.90;;;;;;7490295;19;20010;-78
2023/11/05 02:24:35;;;;;;;0.28;0.28;;;8.80;99.90;;;;;;7494959;19;20928;-76
2023/11/05 02:27:08;;;;;;;0.22;0.20;;;8.80;99.90;;;;;;7495295;19;20512;-76
2023/11/05 02:29:41;;;;;;;0.60;0.40;;;8.60;99.90;;;;;;7491084;19;20029;-76
2023/11/05 02:32:14;;;;;;;0.45;0.30;;;8.60;99.90;;;;;;7488011;19;20022;-77
2023/11/05 02:34:48;;;;;;;0.60;0.60;;;8.50;99.90;;;;;;7475428;19;20018;-77
2023/11/05 02:37:20;;;;;;;2.15;0.40;;;8.50;99.90;;;;;;7496922;19;21030;-76
2023/11/05 02:39:53;;;;;;;1.25;0.30;;;8.50;99.90;;;;;;7484862;19;20110;-77
2023/11/05 02:42:25;;;;;;;1.30;0.30;;;8.70;99.90;;;;;;7492836;19;20014;-78
2023/11/05 02:44:58;;;;;;;0.70;0.50;;;8.60;99.90;;;;;;7471190;19;20010;-77
2023/11/05 02:47:31;;;;;;;0.98;0.55;;;8.60;99.90;;;;;;7498469;19;20385;-77
2023/11/05 02:50:04;;;;;;;0.40;0.40;;;8.60;99.90;;;;;;7496958;19;20643;-78
2023/11/05 02:52:37;;;;;;;1.98;0.30;;;8.50;99.90;;;;;;7488112;19;20402;-77
2023/11/05 02:55:09;;;;;;;0.40;0.40;;;8.60;99.90;;;;;;7461572;19;21155;-77
2023/11/05 02:57:42;;;;;;;0.20;0.20;;;8.50;99.90;;;;;;7473436;19;20011;-78
2023/11/05 03:00:15;;;;;;;0.95;0.40;;;8.50;99.90;;;;;;7474258;19;20510;-78
2023/11/05 03:02:47;;;;;;;0.40;0.40;;;8.60;99.90;;;;;;7469805;19;20015;-78
2023/11/05 03:05:20;;;;;;;1.05;0.30;;;8.50;99.90;;;;;;7489843;19;20022;-77
2023/11/05 03:07:52;;;;;;;0.40;0.40;;;8.50;99.90;;;;;;7477337;19;20829;-77
2023/11/05 03:10:24;;;;;;;0.40;0.40;;;8.50;99.90;;;;;;7493289;19;20014;-77
2023/11/05 03:12:57;;;;;;;0.98;0.40;;;8.50;99.90;;;;;;7474163;19;21336;-76
2023/11/05 03:15:29;;;;;;;0.75;0.50;;;8.50;99.90;;;;;;7482062;19;20613;-77
2023/11/05 03:18:02;;;;;;;0.70;0.32;;;8.50;99.90;;;;;;7477457;19;20078;-76
2023/11/05 03:20:34;;;;;;;1.17;0.40;;;8.50;99.90;;;;;;7521995;19;20481;-76
2023/11/05 03:23:06;;;;;;;1.65;0.50;;;8.40;99.90;;;;;;7519242;19;20662;-76
2023/11/05 03:25:41;;;;;;;0.68;0.50;;;8.20;99.90;;;;;;7507965;19;20078;-75
2023/11/05 03:28:13;;;;;;;1.45;0.30;;;8.30;99.90;;;;;;7526629;19;20068;-76
2023/11/05 03:30:46;;;;;;;0.50;0.40;;;8.30;99.90;;;;;;7508217;19;20052;-76
2023/11/05 03:33:18;;;;;;;0.63;0.35;;;8.30;99.90;;;;;;7518634;19;20303;-77
2023/11/05 03:35:50;;;;;;;0.45;0.45;;;8.20;99.90;;;;;;7514972;19;20500;-78
2023/11/05 03:38:23;;;;;;;0.47;0.47;;;8.20;99.90;;;;;;7519986;19;20785;-77
2023/11/05 03:40:55;;;;;;;0.60;0.30;;;8.20;99.90;;;;;;7521742;19;21085;-77
2023/11/05 03:43:29;;;;;;;0.83;0.47;;;8.10;99.90;;;;;;7506033;19;20447;-77
2023/11/05 03:46:02;;;;;;;0.50;0.40;;;8.10;99.90;;;;;;7502193;19;20287;-78
2023/11/05 03:48:34;;;;;;;4.97;0.40;;;8.10;99.90;;;;;;7530709;19;20018;-77
2023/11/05 03:51:13;;;;;;;1.42;0.45;;;8.10;99.90;;;;;;7513740;19;20587;-77
2023/11/05 03:53:45;;;;;;;1.95;0.40;;;8.10;99.90;;;;;;7525731;19;20034;-77
2023/11/05 03:56:20;;;;;;;0.88;0.65;;;8.10;99.90;;;;;;7516233;19;20839;-77
2023/11/05 03:58:52;;;;;;;0.75;0.70;;;8.00;99.90;;;;;;7544644;19;20022;-77
2023/11/05 04:01:24;;;;;;;0.57;0.40;;;7.90;99.90;;;;;;7519101;19;20496;-76
2023/11/05 04:03:56;;;;;;;0.85;0.30;;;7.90;99.90;;;;;;7511052;19;20021;-77
2023/11/05 04:06:29;;;;;;;1.75;0.50;;;7.80;99.90;;;;;;7507857;19;20025;-77
2023/11/05 04:09:03;;;;;;;;;;;7.80;99.90;;;;;;7512145;19;21109;-77
2023/11/05 04:11:36;;;;;;;0.65;0.30;;;7.70;99.90;;;;;;7517034;19;19925;-77
2023/11/05 04:14:08;;;;;;;0.40;0.40;;;7.80;99.90;;;;;;7502942;19;20018;-77
2023/11/05 04:16:40;;;;;;;0.50;0.50;;;7.70;99.90;;;;;;7509768;19;20018;-77
2023/11/05 04:19:15;;;;;;;0.45;0.40;;;7.60;99.90;;;;;;7512309;19;20444;-78
2023/11/05 04:21:48;;;;;;;0.52;0.50;;;7.60;99.90;;;;;;7511476;19;20203;-77
2023/11/05 04:24:21;;;;;;;0.77;0.50;;;7.60;99.90;;;;;;7498530;19;20102;-76
2023/11/05 04:26:53;;;;;;;0.95;0.60;;;7.60;99.90;;;;;;7515964;19;20404;-78
2023/11/05 04:29:26;;;;;;;0.93;0.50;;;7.60;99.90;;;;;;7480100;19;20022;-75
2023/11/05 04:31:59;;;;;;;0.47;0.43;;;7.60;99.90;;;;;;7503079;19;20394;-78
2023/11/05 04:34:32;;;;;;;0.60;0.40;;;7.60;99.90;;;;;;7509494;19;20768;-78
2023/11/05 04:37:05;;;;;;;1.83;0.40;;;7.60;99.90;;;;;;7508386;19;20014;-76
2023/11/05 04:39:41;;;;;;;1.90;0.98;;;7.40;99.90;;;;;;7514747;19;20408;-77
2023/11/05 04:42:13;;;;;;;3.10;1.70;;;7.30;99.90;;;;;;7495876;19;20547;-77
2023/11/05 04:44:45;;;;;;;1.08;0.90;;;7.10;99.90;;;;;;7519160;19;20056;-78
2023/11/05 04:47:19;;;;;;;1.58;0.60;;;7.10;99.90;;;;;;7511470;19;20018;-77
2023/11/05 04:49:51;;;;;;;0.70;0.45;;;7.10;99.90;;;;;;7524994;19;20048;-76
2023/11/05 04:52:23;;;;;;;0.68;0.43;;;7.20;99.90;;;;;;7505929;19;20886;-77
2023/11/05 04:54:55;;;;;;;0.50;0.45;;;7.20;99.90;;;;;;7508277;19;20564;-77
2023/11/05 04:57:28;;;;;;;0.40;0.40;;;7.20;99.90;;;;;;7502232;19;20234;-78
2023/11/05 05:00:01;;;;;;;0.77;0.50;;;7.10;99.90;;;;;;7517041;19;21305;-79
2023/11/05 05:02:33;;;;;;;2.17;0.40;;;7.00;99.90;;;;;;7498691;19;20037;-76
2023/11/05 05:05:05;;;;;;;2.72;0.60;;;6.90;99.90;;;;;;7521271;19;20019;-76
2023/11/05 05:07:39;;;;;;;0.45;0.40;;;6.80;99.90;;;;;;7492083;19;20022;-78
2023/11/05 05:10:13;;;;;;;2.25;0.57;;;6.90;99.90;;;;;;7510397;19;20006;-78
2023/11/05 05:12:45;;;;;;;1.35;0.80;;;6.90;99.90;;;;;;7498150;19;20479;-79
2023/11/05 05:15:17;;;;;;;0.60;0.45;;;6.90;99.90;;;;;;7505085;19;20022;-78
2023/11/05 05:17:50;;;;;;;0.75;0.40;;;7.00;99.90;;;;;;7505457;19;20365;-78
2023/11/05 05:20:22;;;;;;;1.23;0.32;;;6.90;99.90;;;;;;7491960;19;20017;-78
2023/11/05 05:22:55;;;;;;;0.60;0.50;;;6.90;99.90;;;;;;7507569;19;20335;-78
2023/11/05 05:25:29;;;;;;;2.22;0.73;;;6.80;99.90;;;;;;7489910;19;20427;-77
2023/11/05 05:28:01;;;;;;;0.77;0.50;;;6.90;99.90;;;;;;7506273;19;20120;-77
2023/11/05 05:30:33;;;;;;;0.47;0.47;;;6.80;99.90;;;;;;7492289;19;20026;-78
2023/11/05 05:33:06;;;;;;;5.05;0.60;;;6.80;99.90;;;;;;7528370;19;20015;-77
2023/11/05 05:35:40;;;;;;;0.63;0.40;;;6.70;99.90;;;;;;7484045;19;21024;-77
2023/11/05 05:38:14;;;;;;;2.20;0.50;;;6.70;99.90;;;;;;7492407;19;20014;-77
2023/11/05 05:40:46;;;;;;;;;;;6.80;99.90;;;;;;7511405;19;20014;-76
2023/11/05 05:43:19;;;;;;;0.50;0.50;;;6.80;99.90;;;;;;7509755;19;20539;-78
2023/11/05 05:45:52;;;;;;;0.45;0.45;;;6.80;99.90;;;;;;7473537;19;20476;-79
2023/11/05 05:48:24;;;;;;;1.20;0.80;;;6.70;99.90;;;;;;7504517;19;20006;-77
2023/11/05 05:50:57;;;;;;;0.98;0.50;;;6.70;99.90;;;;;;7499807;19;21627;-77
2023/11/05 05:53:30;;;;;;;0.65;0.50;;;6.60;99.90;;;;;;7504370;19;20722;-77
2023/11/05 05:56:04;;;;;;;;;;;6.60;99.90;;;;;;7499698;19;20650;-77
2023/11/05 05:58:36;;;;;;;0.50;0.50;;;6.60;99.90;;;;;;7495875;19;20478;-77
2023/11/05 06:01:10;;;;;;;1.25;0.50;;;6.70;99.90;;;;;;7491274;19;21044;-76
2023/11/05 06:03:43;;;;;;;0.35;0.35;;;6.70;99.90;;;;;;7497320;19;20027;-76
2023/11/05 06:06:15;;;;;;;0.80;0.77;;;6.70;99.90;;;;;;7498428;19;21226;-77
2023/11/05 06:08:48;;;;;;;0.40;0.40;;;6.80;99.90;;;;;;7502642;19;21946;-77
2023/11/05 06:11:21;;;;;;;2.65;0.43;;;6.80;99.90;;;;;;7490877;19;20010;-76
2023/11/05 06:13:54;;;;;;;1.20;0.50;;;6.80;99.90;;;;;;7487888;19;21302;-78
2023/11/05 06:16:26;;;;;;;0.65;0.50;;;6.80;99.90;;;;;;7484366;19;21347;-78
2023/11/05 06:18:59;;;;;;;0.68;0.60;;;6.90;99.90;;;;;;7496151;19;20021;-78
2023/11/05 06:21:31;;;;;;;1.65;0.47;;;7.00;99.90;;;;;;7484595;19;20068;-78
2023/11/05 06:24:04;;;;;;;0.40;0.40;;;7.00;99.90;;;;;;7498395;19;20018;-77
2023/11/05 06:26:37;;;;;;;0.90;0.60;;;7.00;99.90;;;;;;7512465;19;20026;-77
2023/11/05 06:29:10;;;;;;;0.80;0.60;;;7.10;99.90;;;;;;7493410;19;20560;-77
2023/11/05 06:31:42;;;;;;;1.00;0.60;;;7.10;99.90;;;;;;7502580;19;20018;-78
2023/11/05 06:34:14;;;;;;;0.77;0.50;;;7.00;99.90;;;;;;7516161;19;20021;-78
2023/11/05 06:37:01;;;;;;;1.25;0.70;;;6.90;99.90;;;;;;7492303;19;20071;-77
2023/11/05 06:39:34;;;;;;;0.73;0.57;;;6.90;99.90;;;;;;7494873;19;20763;-78
2023/11/05 06:42:06;;;;;;;0.55;0.40;;;6.90;99.90;;;;;;7499599;19;20010;-78
2023/11/05 06:44:40;;;;;;;0.57;0.57;;;6.90;99.90;;;;;;7486010;19;21875;-78
2023/11/05 06:47:13;;;;;;;0.63;0.50;;;6.90;99.90;;;;;;7497058;19;20410;-78
2023/11/05 06:49:46;;;;;;;0.43;0.43;;;7.00;99.90;;;;;;7512497;19;20018;-78
2023/11/05 06:52:19;;;;;;;;;;;7.10;99.90;;;;;;7509426;19;20643;-78
2023/11/05 06:54:52;;;;;;;2.15;1.00;;;7.20;99.90;;;;;;7509703;19;19946;-78
2023/11/05 06:57:25;;;;;;;1.05;0.95;;;7.30;99.90;;;;;;7507580;19;20673;-77
2023/11/05 06:59:57;;;;;;;0.77;0.60;;;7.30;99.90;;;;;;7505012;19;21270;-78
2023/11/05 07:02:31;;;;;;;0.90;0.70;;;7.30;99.90;;;;;;7522804;19;20010;-76
2023/11/05 07:05:04;;;;;;;0.77;0.60;;;7.30;99.90;;;;;;7503679;19;20011;-78
2023/11/05 07:07:37;;;;;;;;;;;7.40;99.90;;;;;;7506445;19;20955;-79
2023/11/05 07:10:10;;;;;;;1.15;0.80;;;7.40;99.90;;;;;;7501899;19;20443;-75
2023/11/05 07:12:42;;;;;;;0.77;0.60;;;7.40;99.90;;;;;;7497256;19;20010;-76
2023/11/05 07:15:15;;;;;;;2.35;0.75;;;7.50;99.90;;;;;;7487043;19;20366;-77
2023/11/05 07:17:48;;;;;;;;;;;7.50;99.90;;;;;;7507977;19;20075;-76
2023/11/05 07:20:21;;;;;;;1.02;0.85;;;7.60;99.90;;;;;;7504600;19;20863;-78
2023/11/05 07:22:54;;;;;;;0.77;0.75;;;7.60;99.90;;;;;;7478604;19;20328;-78
2023/11/05 07:25:27;;;;;;;1.60;0.70;;;7.60;99.90;;;;;;7504969;19;20575;-77
2023/11/05 07:28:00;;;;;;;1.57;1.47;;;7.70;99.90;;;;;;7480347;19;20960;-76
2023/11/05 07:30:32;;;;;;;1.23;0.90;;;7.70;99.90;;;;;;7500295;19;20018;-77
2023/11/05 07:33:07;;;;;;;2.88;1.20;;;7.70;99.90;;;;;;7508031;19;20017;-77
2023/11/05 07:35:40;;;;;;;3.67;1.80;;;7.80;99.90;;;;;;7498251;19;20022;-77
2023/11/05 07:38:12;;;;;;;2.28;1.40;;;7.90;99.90;;;;;;7496151;19;20017;-77
2023/11/05 07:40:46;;;;;;;3.53;1.30;;;7.90;99.90;;;;;;7496834;19;20866;-78
2023/11/05 07:43:18;;;;;;;2.35;1.55;;;8.00;99.90;;;;;;7492236;19;20818;-76
2023/11/05 07:45:50;;;;;;;2.08;1.15;;;8.00;99.90;;;;;;7492466;19;20006;-77
2023/11/05 07:48:22;;;;;;;1.50;0.98;;;8.10;99.90;;;;;;7493258;19;20022;-76
2023/11/05 07:50:56;;;;;;;2.13;1.10;;;8.20;99.90;;;;;;7505019;19;20789;-79
2023/11/05 07:53:29;;;;;;;1.70;1.03;;;8.30;99.90;;;;;;7501531;19;20083;-76
2023/11/05 07:56:01;;;;;;;0.88;0.60;;;8.30;99.90;;;;;;7504085;19;20279;-77
2023/11/05 07:58:33;;;;;;;2.47;0.70;;;8.20;99.90;;;;;;7485165;19;20022;-76
2023/11/05 08:01:06;;;;;;;1.23;0.85;;;8.30;99.90;;;;;;7513872;19;20696;-76
2023/11/05 08:03:42;;;;;;;0.90;0.70;;;8.40;99.90;;;;;;7516707;19;20471;-76
2023/11/05 08:06:15;;;;;;;1.98;1.20;;;8.40;99.90;;;;;;7516719;19;20010;-77
2023/11/05 08:08:47;;;;;;;9.13;4.65;;;8.50;99.90;;;;;;7520597;19;20018;-78
2023/11/05 08:11:20;;;;;;;6.43;3.55;;;8.60;99.90;;;;;;7520437;19;20510;-77
2023/11/05 08:13:52;;;;;;;1.98;1.23;;;8.70;99.90;;;;;;7517671;19;20018;-78
2023/11/05 08:16:25;;;;;;;1.10;0.93;;;8.80;99.90;;;;;;7511702;19;20694;-77
2023/11/05 08:18:57;;;;;;;1.65;1.10;;;8.90;99.90;;;;;;7529892;19;20018;-77
2023/11/05 08:21:30;;;;;;;1.35;0.93;;;8.90;99.90;;;;;;7513699;19;20021;-78
2023/11/05 08:24:03;;;;;;;1.13;0.82;;;9.00;99.90;;;;;;7498789;19;20022;-78
2023/11/05 08:26:35;;;;;;;1.27;1.00;;;9.10;99.90;;;;;;7509263;19;21184;-76
2023/11/05 08:29:08;;;;;;;1.90;1.02;;;9.20;99.90;;;;;;7505261;19;20635;-76
2023/11/05 08:31:42;;;;;;;1.63;1.20;;;9.30;99.90;;;;;;7519751;19;20417;-77
2023/11/05 08:34:20;;;;;;;1.67;0.80;;;9.40;99.90;;;;;;7518672;19;20381;-77
2023/11/05 08:36:54;;;;;;;2.42;1.17;;;9.40;99.90;;;;;;7495148;19;21549;-76
2023/11/05 08:39:27;;;;;;;1.50;1.02;;;9.60;99.90;;;;;;7512653;19;20045;-76
2023/11/05 08:41:59;;;;;;;2.85;1.70;;;9.70;99.90;;;;;;7517112;19;20064;-77
2023/11/05 08:44:32;;;;;;;2.13;1.13;;;9.80;99.90;;;;;;7504661;19;20033;-77
2023/11/05 08:47:04;;;;;;;4.00;2.38;;;9.90;99.90;;;;;;7520669;19;20022;-77
2023/11/05 08:49:36;;;;;;;4.60;2.25;;;10.00;99.90;;;;;;7497339;19;20018;-76
2023/11/05 08:52:09;;;;;;;2.55;1.10;;;10.10;99.90;;;;;;7497200;19;20093;-77
2023/11/05 08:54:41;;;;;;;3.10;1.50;;;10.30;99.90;;;;;;7509650;19;20010;-77
2023/11/05 08:57:13;;;;;;;3.08;1.42;;;10.40;99.90;;;;;;7517374;19;20484;-77
2023/11/05 08:59:49;;;;;;;4.70;1.50;;;10.50;99.90;;;;;;7499245;19;20022;-77
2023/11/05 09:02:23;;;;;;;5.43;1.40;;;10.60;99.90;;;;;;7520035;19;20025;-77
2023/11/05 09:04:55;;;;;;;3.80;1.88;;;10.70;99.90;;;;;;7515936;19;20006;-77
2023/11/05 09:07:27;;;;;;;2.50;1.60;;;10.70;99.90;;;;;;7513758;19;20975;-77
2023/11/05 09:10:00;;;;;;;2.25;1.15;;;10.80;99.90;;;;;;7504570;19;20469;-77
2023/11/05 09:12:33;;;;;;;4.20;1.40;;;10.80;99.90;;;;;;7531593;19;20550;-76
2023/11/05 09:15:08;;;;;;;2.03;1.35;;;10.90;99.90;;;;;;7519025;19;20011;-77
2023/11/05 09:17:41;;;;;;;2.15;1.50;;;10.90;99.90;;;;;;7523420;19;20811;-77
2023/11/05 09:20:14;;;;;;;2.35;1.08;;;11.00;99.90;;;;;;7453491;19;20025;-78
2023/11/05 09:22:47;;;;;;;2.63;1.45;;;11.10;99.90;;;;;;7482783;19;20799;-77
2023/11/05 09:25:19;;;;;;;2.05;1.30;;;11.20;99.90;;;;;;7485735;19;20626;-77
2023/11/05 09:27:51;;;;;;;2.47;1.45;;;11.20;99.90;;;;;;7491900;19;20019;-76
2023/11/05 09:30:24;;;;;;;2.00;1.20;;;11.40;99.90;;;;;;7449229;19;20227;-76
2023/11/05 09:32:56;;;;;;;3.50;1.38;;;11.50;99.90;;;;;;7458950;19;20475;-76
2023/11/05 09:35:30;;;;;;;3.55;1.50;;;11.60;99.90;;;;;;7461783;19;20036;-75
2023/11/05 09:38:03;;;;;;;2.25;1.20;;;11.70;99.90;;;;;;7430749;19;22320;-76
2023/11/05 09:40:35;;;;;;;1.60;1.40;;;11.70;99.90;;;;;;7455691;19;21211;-76
2023/11/05 09:43:10;;;;;;;1.50;0.90;;;11.90;99.90;;;;;;7453991;19;20033;-76
2023/11/05 09:45:44;;;;;;;0.70;0.70;;;11.90;99.90;;;;;;7422050;19;20357;-76
2023/11/05 09:48:17;;;;;;;1.00;0.80;;;12.00;99.90;;;;;;7451527;19;20045;-76
2023/11/05 09:50:50;;;;;;;0.70;0.60;;;12.10;99.90;;;;;;7463333;19;20381;-78
2023/11/05 09:53:28;;;;;;;0.60;0.45;;;12.20;99.90;;;;;;7470462;19;21496;-78
2023/11/05 09:56:00;;;;;;;2.63;1.55;;;12.20;99.90;;;;;;7457081;19;20018;-77
2023/11/05 09:58:33;;;;;;;1.45;0.45;;;12.30;99.90;;;;;;7477971;19;21851;-77
2023/11/05 10:01:08;;;;;;;1.20;0.50;;;12.40;99.90;;;;;;7455670;19;20397;-78
2023/11/05 10:03:42;;;;;;;1.80;0.40;;;12.50;99.90;;;;;;7466480;19;20036;-76
2023/11/05 10:06:16;;;;;;;1.02;0.52;;;12.60;99.90;;;;;;7465410;19;20022;-77
2023/11/05 10:08:49;;;;;;;1.45;0.52;;;12.60;99.90;;;;;;7474745;19;20015;-77
2023/11/05 10:11:21;;;;;;;1.27;0.80;;;12.50;99.90;;;;;;7479003;19;20308;-77
2023/11/05 10:13:54;;;;;;;0.60;0.40;;;12.50;99.90;;;;;;7474346;19;20019;-77
2023/11/05 10:16:26;;;;;;;1.10;0.47;;;12.40;99.90;;;;;;7485721;19;21473;-76
2023/11/05 10:18:59;;;;;;;1.17;0.32;;;12.30;99.90;;;;;;7474984;19;20011;-76
2023/11/05 10:21:36;;;;;;;0.90;0.60;;;12.20;99.90;;;;;;7487658;19;20599;-77
2023/11/05 10:24:09;;;;;;;6.80;0.50;;;12.10;99.90;;;;;;7476686;19;20480;-77
2023/11/05 10:26:41;;;;;;;0.52;0.30;;;11.90;99.90;;;;;;7507244;19;20010;-77
2023/11/05 10:29:15;;;;;;;1.73;0.50;;;12.00;99.90;;;;;;7495896;19;21298;-76
2023/11/05 10:31:48;;;;;;;0.45;0.40;;;11.80;99.90;;;;;;7467263;19;20655;-76
2023/11/05 10:34:21;;;;;;;1.05;0.38;;;11.80;99.90;;;;;;7444814;19;20397;-76
2023/11/05 10:36:54;;;;;;;0.43;0.30;;;11.90;99.90;;;;;;7469550;19;20006;-76
2023/11/05 10:39:26;;;;;;;0.60;0.38;;;12.00;99.90;;;;;;7480825;19;20315;-77
2023/11/05 10:42:00;;;;;;;0.30;0.30;;;12.00;99.90;;;;;;7481329;19;22625;-75
2023/11/05 10:44:34;;;;;;;0.30;0.30;;;11.90;99.90;;;;;;7479091;19;20021;-77
2023/11/05 10:47:07;;;;;;;1.55;0.30;;;11.80;99.90;;;;;;7458011;19;21108;-76
2023/11/05 10:49:42;;;;;;;2.42;0.30;;;11.70;99.90;;;;;;7482917;19;20879;-77
2023/11/05 10:52:14;;;;;;;0.65;0.52;;;11.60;99.90;;;;;;7493753;19;20026;-76
2023/11/05 10:55:06;;;;;;;1.55;0.50;;;11.30;99.90;;;;;;7458394;19;21307;-76
2023/11/05 10:57:46;;;;;;;1.02;0.50;;;11.00;99.90;;;;;;7472144;19;20030;-77
2023/11/05 11:00:25;;;;;;;1.48;0.50;;;10.70;99.90;;;;;;7459604;19;20342;-76
2023/11/05 11:03:01;;;;;;;1.85;0.40;;;10.70;99.90;;;;;;7458967;19;20042;-75
2023/11/05 11:06:01;;;;;;;1.95;0.38;;;10.70;99.90;;;;;;7478330;19;20019;-75
2023/11/05 11:08:34;;;;;;;2.22;0.40;;;10.80;99.90;;;;;;7471272;19;20006;-76
2023/11/05 11:11:13;;;;;;;0.95;0.50;;;10.60;99.90;;;;;;7445046;19;21300;-75
2023/11/05 11:13:57;;;;;;;0.45;0.40;;;10.70;99.90;;;;;;7474264;19;20107;-75
2023/11/05 11:16:32;;;;;;;0.93;0.40;;;10.80;99.90;;;;;;7459689;19;20491;-76
2023/11/05 11:19:08;;;;;;;0.52;0.40;;;10.90;99.90;;;;;;7466141;19;20039;-76
2023/11/05 11:21:50;;;;;;;0.95;0.60;;;11.30;99.90;;;;;;7473849;19;20030;-77
2023/11/05 11:24:35;;;;;;;0.90;0.40;;;11.20;99.90;;;;;;7487684;19;20015;-76
2023/11/05 11:27:09;;;;;;;0.73;0.50;;;11.10;99.90;;;;;;7482184;19;20874;-75
2023/11/05 11:29:42;;;;;;;1.17;0.40;;;11.10;99.90;;;;;;7482412;19;20413;-76
2023/11/05 11:32:16;;;;;;;0.45;0.40;;;11.00;99.90;;;;;;7452406;19;20015;-76
2023/11/05 11:34:49;;;;;;;1.23;0.60;;;11.40;99.90;;;;;;7474056;19;20014;-76
2023/11/05 11:37:22;;;;;;;0.55;0.40;;;12.20;99.90;;;;;;7496897;19;20860;-76
2023/11/05 11:39:56;;;;;;;1.30;0.87;;;14.40;99.90;;;;;;7519949;19;20389;-76
2023/11/05 11:42:28;;;;;;;1.50;0.80;;;14.30;99.90;;;;;;7513470;19;20094;-76
2023/11/05 11:45:01;;;;;;;0.63;0.50;;;14.40;99.90;;;;;;7463098;19;20467;-76
2023/11/05 11:47:33;;;;;;;0.52;0.40;;;13.70;99.90;;;;;;7491807;19;20858;-76
2023/11/05 11:50:07;;;;;;;0.73;0.70;;;13.50;99.90;;;;;;7471705;19;20018;-77
2023/11/05 11:52:52;;;;;;;0.30;0.30;;;13.20;99.90;;;;;;7479954;19;20011;-76
2023/11/05 11:55:26;;;;;;;0.47;0.43;;;12.70;99.90;;;;;;7461205;19;20019;-75
2023/11/05 11:58:00;;;;;;;0.45;0.43;;;12.50;99.90;;;;;;7474396;19;20487;-76
2023/11/05 12:00:33;;;;;;;0.77;0.55;;;12.40;99.90;;;;;;7480854;19;20969;-75
2023/11/05 12:03:05;;;;;;;0.60;0.50;;;12.30;99.90;;;;;;7459919;19;20033;-76
2023/11/05 12:05:41;;;;;;;0.70;0.50;;;12.20;99.90;;;;;;7479750;19;20022;-75
2023/11/05 12:08:13;;;;;;;0.30;0.30;;;12.00;99.90;;;;;;7472714;19;20425;-76
2023/11/05 12:10:46;;;;;;;0.22;0.22;;;11.90;99.90;;;;;;7478839;19;20597;-76
2023/11/05 12:13:18;;;;;;;3.08;0.60;;;11.80;99.90;;;;;;7472411;19;20808;-76
2023/11/05 12:15:51;;;;;;;0.95;0.32;;;11.90;99.90;;;;;;7452626;19;20018;-76
2023/11/05 12:18:23;;;;;;;1.13;0.40;;;11.70;99.90;;;;;;7466247;19;20926;-78
2023/11/05 12:20:56;;;;;;;2.80;0.50;;;12.20;99.90;;;;;;7487254;19;20912;-76
2023/11/05 12:23:29;;;;;;;0.80;0.50;;;12.80;99.90;;;;;;7476086;19;20902;-74
2023/11/05 12:26:05;;;;;;;1.10;0.65;;;13.20;99.90;;;;;;7473850;19;25874;-74
2023/11/05 12:28:39;;;;;;;1.33;0.40;;;13.40;99.90;;;;;;7484123;19;21589;-74
2023/11/05 12:31:11;;;;;;;;;;;13.40;99.90;;;;;;7475492;19;20072;-74
2023/11/05 12:33:45;;;;;;;1.02;0.70;;;13.70;99.90;;;;;;7486186;19;19925;-75
2023/11/05 12:36:18;;;;;;;1.48;0.85;;;13.40;99.90;;;;;;7466136;19;20015;-73
2023/11/05 12:38:50;;;;;;;1.30;0.80;;;13.40;99.90;;;;;;7453625;19;20025;-77
2023/11/05 12:41:22;;;;;;;0.60;0.60;;;13.90;99.90;;;;;;7464811;19;20058;-76
2023/11/05 12:43:54;;;;;;;0.95;0.70;;;14.30;99.90;;;;;;7451651;19;20022;-75
2023/11/05 12:46:27;;;;;;;4.57;0.43;;;14.20;99.90;;;;;;7459031;19;20441;-76
2023/11/05 12:48:59;;;;;;;1.55;0.30;;;13.90;99.90;;;;;;7471682;19;20130;-75
2023/11/05 12:51:32;;;;;;;0.43;0.40;;;13.70;99.90;;;;;;7448703;19;21125;-75
2023/11/05 12:54:05;;;;;;;0.40;0.40;;;14.10;99.90;;;;;;7481785;19;20039;-77
2023/11/05 12:56:38;;;;;;;0.80;0.70;;;15.90;98.70;;;;;;7480970;19;20433;-77
2023/11/05 12:59:12;;;;;;;1.05;0.70;;;16.40;96.00;;;;;;7495643;19;20022;-74
2023/11/05 13:01:45;;;;;;;0.38;0.38;;;16.80;95.60;;;;;;7489994;19;20647;-75
2023/11/05 13:04:18;;;;;;;0.57;0.57;;;15.50;95.80;;;;;;7484669;19;25908;-76
2023/11/05 13:06:54;;;;;;;2.70;0.50;;;15.10;96.70;;;;;;7499450;19;20025;-76
2023/11/05 13:09:27;;;;;;;2.20;0.30;;;15.30;96.60;;;;;;7470200;19;20046;-76
2023/11/05 13:12:05;;;;;;;0.80;0.30;;;14.40;97.40;;;;;;7499054;19;20022;-77
2023/11/05 13:14:38;;;;;;;1.20;0.98;;;14.10;97.60;;;;;;7503307;19;20381;-76
2023/11/05 13:17:10;;;;;;;0.30;0.30;;;14.40;96.60;;;;;;7482075;19;20020;-76
2023/11/05 13:19:43;;;;;;;0.32;0.32;;;13.90;97.10;;;;;;7491783;19;20681;-77
2023/11/05 13:22:15;;;;;;;2.42;0.90;;;13.80;97.70;;;;;;7505648;19;20014;-78
2023/11/05 13:24:48;;;;;;;0.50;0.40;;;13.90;97.50;;;;;;7495148;19;20019;-77
2023/11/05 13:27:21;;;;;;;0.40;0.40;;;14.00;97.30;;;;;;7465969;19;20044;-76